sensor_id;sensor_type;location;lat;lon;timestamp;P1;durP1;ratioP1;P2;durP2;ratioP2
351;SDS011;164;50.784;6.496;2023-01-13T00:01:47;0.40;;;0.30;;
351;SDS011;164;50.784;6.496;2023-01-13T00:04:16;0.40;;;0.30;;
351;SDS011;164;50.784;6.496;2023-01-13T00:06:43;0.40;;;0.28;;
351;SDS011;164;50.784;6.496;2023-01-13T00:09:10;0.50;;;0.30;;
351;SDS011;164;50.784;6.496;2023-01-13T00:11:38;0.73;;;0.40;;
351;SDS011;164;50.784;6.496;2023-01-13T00:14:05;0.70;;;0.30;;
351;SDS011;164;50.784;6.496;2023-01-13T00:16:32;0.60;;;0.47;;
351;SDS011;164;50.784;6.496;2023-01-13T00:18:59;0.47;;;0.38;;
351;SDS011;164;50.784;6.496;2023-01-13T00:21:28;1.02;;;0.40;;
351;SDS011;164;50.784;6.496;2023-01-13T00:23:55;0.50;;;0.30;;
351;SDS011;164;50.784;6.496;2023-01-13T00:26:22;0.63;;;0.35;;
351;SDS011;164;50.784;6.496;2023-01-13T00:28:54;0.50;;;0.30;;
351;SDS011;164;50.784;6.496;2023-01-13T00:31:22;0.50;;;0.30;;
351;SDS011;164;50.784;6.496;2023-01-13T00:33:49;0.50;;;0.20;;
351;SDS011;164;50.784;6.496;2023-01-13T00:36:16;0.73;;;0.30;;
351;SDS011;164;50.784;6.496;2023-01-13T00:38:46;1.08;;;0.50;;
351;SDS011;164;50.784;6.496;2023-01-13T00:41:14;0.80;;;0.50;;
351;SDS011;164;50.784;6.496;2023-01-13T00:43:42;0.50;;;0.30;;
351;SDS011;164;50.784;6.496;2023-01-13T00:46:09;0.50;;;0.30;;
351;SDS011;164;50.784;6.496;2023-01-13T00:48:37;2.05;;;0.90;;
351;SDS011;164;50.784;6.496;2023-01-13T00:51:05;1.45;;;0.40;;
351;SDS011;164;50.784;6.496;2023-01-13T00:53:34;0.60;;;0.40;;
351;SDS011;164;50.784;6.496;2023-01-13T00:56:04;1.05;;;0.40;;
351;SDS011;164;50.784;6.496;2023-01-13T00:58:33;1.80;;;0.50;;
351;SDS011;164;50.784;6.496;2023-01-13T01:01:01;0.98;;;0.50;;
351;SDS011;164;50.784;6.496;2023-01-13T01:03:29;1.13;;;0.40;;
351;SDS011;164;50.784;6.496;2023-01-13T01:05:56;1.55;;;0.55;;
351;SDS011;164;50.784;6.496;2023-01-13T01:08:29;0.70;;;0.40;;
351;SDS011;164;50.784;6.496;2023-01-13T01:11:00;1.30;;;0.40;;
351;SDS011;164;50.784;6.496;2023-01-13T01:13:29;1.10;;;0.40;;
351;SDS011;164;50.784;6.496;2023-01-13T01:15:56;1.05;;;0.47;;
351;SDS011;164;50.784;6.496;2023-01-13T01:18:24;0.65;;;0.40;;
351;SDS011;164;50.784;6.496;2023-01-13T01:20:51;1.27;;;0.80;;
351;SDS011;164;50.784;6.496;2023-01-13T01:23:19;2.55;;;0.50;;
351;SDS011;164;50.784;6.496;2023-01-13T01:25:46;0.82;;;0.50;;
351;SDS011;164;50.784;6.496;2023-01-13T01:28:13;2.15;;;0.47;;
351;SDS011;164;50.784;6.496;2023-01-13T01:30:43;1.40;;;0.40;;
351;SDS011;164;50.784;6.496;2023-01-13T01:33:10;1.75;;;0.47;;
351;SDS011;164;50.784;6.496;2023-01-13T01:35:38;3.25;;;0.80;;
351;SDS011;164;50.784;6.496;2023-01-13T01:38:05;0.98;;;0.90;;
351;SDS011;164;50.784;6.496;2023-01-13T01:40:33;3.00;;;0.65;;
351;SDS011;164;50.784;6.496;2023-01-13T01:43:00;2.10;;;1.27;;
351;SDS011;164;50.784;6.496;2023-01-13T01:45:46;0.70;;;0.40;;
351;SDS011;164;50.784;6.496;2023-01-13T01:48:16;0.70;;;0.52;;
351;SDS011;164;50.784;6.496;2023-01-13T01:50:43;0.60;;;0.38;;
351;SDS011;164;50.784;6.496;2023-01-13T01:53:12;0.77;;;0.60;;
351;SDS011;164;50.784;6.496;2023-01-13T01:55:41;2.22;;;0.57;;
351;SDS011;164;50.784;6.496;2023-01-13T01:58:09;1.25;;;0.40;;
351;SDS011;164;50.784;6.496;2023-01-13T02:00:36;1.63;;;0.50;;
351;SDS011;164;50.784;6.496;2023-01-13T02:03:06;2.10;;;0.60;;
351;SDS011;164;50.784;6.496;2023-01-13T02:05:33;0.77;;;0.40;;
351;SDS011;164;50.784;6.496;2023-01-13T02:08:03;2.28;;;1.20;;
351;SDS011;164;50.784;6.496;2023-01-13T02:10:31;2.40;;;0.70;;
351;SDS011;164;50.784;6.496;2023-01-13T02:12:59;0.88;;;0.50;;
351;SDS011;164;50.784;6.496;2023-01-13T02:15:28;2.67;;;0.50;;
351;SDS011;164;50.784;6.496;2023-01-13T02:18:02;1.38;;;0.50;;
351;SDS011;164;50.784;6.496;2023-01-13T02:20:40;2.08;;;0.55;;
351;SDS011;164;50.784;6.496;2023-01-13T02:26:20;1.20;;;0.63;;
351;SDS011;164;50.784;6.496;2023-01-13T02:28:58;1.85;;;0.70;;
351;SDS011;164;50.784;6.496;2023-01-13T02:31:57;2.90;;;0.60;;
351;SDS011;164;50.784;6.496;2023-01-13T02:34:27;4.28;;;0.90;;
351;SDS011;164;50.784;6.496;2023-01-13T02:36:58;3.13;;;0.85;;
351;SDS011;164;50.784;6.496;2023-01-13T02:39:30;2.00;;;0.82;;
351;SDS011;164;50.784;6.496;2023-01-13T02:42:01;1.48;;;0.70;;
351;SDS011;164;50.784;6.496;2023-01-13T02:44:50;2.92;;;0.85;;
351;SDS011;164;50.784;6.496;2023-01-13T02:47:19;3.22;;;0.95;;
351;SDS011;164;50.784;6.496;2023-01-13T02:49:48;4.45;;;1.00;;
351;SDS011;164;50.784;6.496;2023-01-13T02:52:17;4.97;;;1.23;;
351;SDS011;164;50.784;6.496;2023-01-13T02:54:46;4.53;;;1.13;;
351;SDS011;164;50.784;6.496;2023-01-13T02:57:16;6.40;;;0.90;;
351;SDS011;164;50.784;6.496;2023-01-13T02:59:44;3.38;;;1.42;;
351;SDS011;164;50.784;6.496;2023-01-13T03:02:12;2.95;;;1.20;;
351;SDS011;164;50.784;6.496;2023-01-13T03:04:52;5.13;;;1.80;;
351;SDS011;164;50.784;6.496;2023-01-13T03:07:37;5.35;;;1.52;;
351;SDS011;164;50.784;6.496;2023-01-13T03:10:08;4.75;;;1.50;;
351;SDS011;164;50.784;6.496;2023-01-13T03:12:38;8.95;;;3.20;;
351;SDS011;164;50.784;6.496;2023-01-13T03:15:13;5.43;;;1.73;;
351;SDS011;164;50.784;6.496;2023-01-13T03:17:43;5.60;;;1.70;;
351;SDS011;164;50.784;6.496;2023-01-13T03:20:14;12.23;;;2.13;;
351;SDS011;164;50.784;6.496;2023-01-13T03:22:43;5.65;;;2.08;;
351;SDS011;164;50.784;6.496;2023-01-13T03:25:14;9.23;;;2.17;;
351;SDS011;164;50.784;6.496;2023-01-13T03:27:45;7.68;;;2.15;;
351;SDS011;164;50.784;6.496;2023-01-13T03:30:15;6.30;;;2.45;;
351;SDS011;164;50.784;6.496;2023-01-13T03:32:44;4.82;;;1.33;;
351;SDS011;164;50.784;6.496;2023-01-13T03:35:15;5.40;;;2.05;;
351;SDS011;164;50.784;6.496;2023-01-13T03:37:45;10.60;;;2.92;;
351;SDS011;164;50.784;6.496;2023-01-13T03:40:15;11.02;;;2.22;;
351;SDS011;164;50.784;6.496;2023-01-13T03:42:45;6.50;;;2.28;;
351;SDS011;164;50.784;6.496;2023-01-13T03:45:26;7.20;;;2.20;;
351;SDS011;164;50.784;6.496;2023-01-13T03:47:55;3.70;;;2.00;;
351;SDS011;164;50.784;6.496;2023-01-13T03:50:27;5.32;;;2.15;;
351;SDS011;164;50.784;6.496;2023-01-13T03:52:57;12.10;;;2.70;;
351;SDS011;164;50.784;6.496;2023-01-13T03:55:27;8.48;;;2.70;;
351;SDS011;164;50.784;6.496;2023-01-13T03:57:56;7.57;;;2.58;;
351;SDS011;164;50.784;6.496;2023-01-13T04:00:26;10.85;;;3.58;;
351;SDS011;164;50.784;6.496;2023-01-13T04:02:56;8.93;;;3.40;;
351;SDS011;164;50.784;6.496;2023-01-13T04:05:24;7.80;;;2.70;;
351;SDS011;164;50.784;6.496;2023-01-13T04:07:56;12.45;;;3.30;;
351;SDS011;164;50.784;6.496;2023-01-13T04:16:36;13.23;;;2.83;;
351;SDS011;164;50.784;6.496;2023-01-13T04:19:03;10.98;;;2.80;;
351;SDS011;164;50.784;6.496;2023-01-13T04:21:30;11.02;;;3.55;;
351;SDS011;164;50.784;6.496;2023-01-13T04:24:00;14.35;;;2.97;;
351;SDS011;164;50.784;6.496;2023-01-13T04:26:27;7.75;;;2.65;;
351;SDS011;164;50.784;6.496;2023-01-13T04:28:54;7.75;;;2.40;;
351;SDS011;164;50.784;6.496;2023-01-13T04:31:22;6.60;;;2.33;;
351;SDS011;164;50.784;6.496;2023-01-13T04:33:49;8.32;;;2.75;;
351;SDS011;164;50.784;6.496;2023-01-13T04:36:17;11.13;;;2.35;;
351;SDS011;164;50.784;6.496;2023-01-13T04:38:49;11.15;;;2.28;;
351;SDS011;164;50.784;6.496;2023-01-13T04:41:18;10.93;;;3.25;;
351;SDS011;164;50.784;6.496;2023-01-13T04:43:45;7.95;;;2.85;;
351;SDS011;164;50.784;6.496;2023-01-13T04:46:12;11.05;;;4.13;;
351;SDS011;164;50.784;6.496;2023-01-13T04:48:39;8.25;;;2.25;;
351;SDS011;164;50.784;6.496;2023-01-13T04:51:07;7.03;;;3.67;;
351;SDS011;164;50.784;6.496;2023-01-13T04:53:35;6.70;;;1.95;;
351;SDS011;164;50.784;6.496;2023-01-13T04:56:03;10.80;;;2.63;;
351;SDS011;164;50.784;6.496;2023-01-13T04:58:32;8.35;;;2.58;;
351;SDS011;164;50.784;6.496;2023-01-13T05:00:59;5.38;;;1.80;;
351;SDS011;164;50.784;6.496;2023-01-13T05:03:26;7.97;;;1.52;;
351;SDS011;164;50.784;6.496;2023-01-13T05:05:54;6.32;;;2.20;;
351;SDS011;164;50.784;6.496;2023-01-13T05:08:21;9.75;;;2.95;;
351;SDS011;164;50.784;6.496;2023-01-13T05:10:48;6.75;;;2.40;;
351;SDS011;164;50.784;6.496;2023-01-13T05:13:16;9.38;;;2.20;;
351;SDS011;164;50.784;6.496;2023-01-13T05:16:02;4.65;;;1.50;;
351;SDS011;164;50.784;6.496;2023-01-13T05:18:47;6.18;;;1.65;;
351;SDS011;164;50.784;6.496;2023-01-13T05:21:14;5.20;;;1.67;;
351;SDS011;164;50.784;6.496;2023-01-13T05:23:59;6.00;;;2.58;;
351;SDS011;164;50.784;6.496;2023-01-13T05:26:49;6.55;;;1.83;;
351;SDS011;164;50.784;6.496;2023-01-13T05:29:16;5.75;;;1.88;;
351;SDS011;164;50.784;6.496;2023-01-13T05:31:45;5.47;;;1.30;;
351;SDS011;164;50.784;6.496;2023-01-13T05:34:12;5.43;;;1.30;;
351;SDS011;164;50.784;6.496;2023-01-13T05:36:39;3.63;;;1.25;;
351;SDS011;164;50.784;6.496;2023-01-13T05:39:07;3.65;;;0.93;;
351;SDS011;164;50.784;6.496;2023-01-13T05:41:34;3.55;;;1.40;;
351;SDS011;164;50.784;6.496;2023-01-13T05:44:19;3.85;;;1.83;;
351;SDS011;164;50.784;6.496;2023-01-13T05:46:47;4.82;;;1.75;;
351;SDS011;164;50.784;6.496;2023-01-13T05:49:15;1.58;;;0.75;;
351;SDS011;164;50.784;6.496;2023-01-13T05:51:42;4.13;;;1.05;;
351;SDS011;164;50.784;6.496;2023-01-13T05:54:11;3.92;;;1.38;;
351;SDS011;164;50.784;6.496;2023-01-13T05:56:38;2.17;;;1.00;;
351;SDS011;164;50.784;6.496;2023-01-13T05:59:05;4.47;;;1.85;;
351;SDS011;164;50.784;6.496;2023-01-13T06:01:33;5.35;;;2.00;;
351;SDS011;164;50.784;6.496;2023-01-13T06:04:02;5.25;;;2.25;;
351;SDS011;164;50.784;6.496;2023-01-13T06:06:30;4.90;;;1.45;;
351;SDS011;164;50.784;6.496;2023-01-13T06:08:57;4.00;;;1.20;;
351;SDS011;164;50.784;6.496;2023-01-13T06:11:24;5.38;;;0.98;;
351;SDS011;164;50.784;6.496;2023-01-13T06:13:51;4.68;;;1.15;;
351;SDS011;164;50.784;6.496;2023-01-13T06:16:18;4.20;;;1.85;;
351;SDS011;164;50.784;6.496;2023-01-13T06:18:46;2.50;;;1.30;;
351;SDS011;164;50.784;6.496;2023-01-13T06:21:14;4.32;;;1.02;;
351;SDS011;164;50.784;6.496;2023-01-13T06:23:42;3.20;;;1.08;;
351;SDS011;164;50.784;6.496;2023-01-13T06:26:11;5.93;;;1.50;;
351;SDS011;164;50.784;6.496;2023-01-13T06:28:40;3.33;;;1.05;;
351;SDS011;164;50.784;6.496;2023-01-13T06:31:08;2.85;;;0.60;;
351;SDS011;164;50.784;6.496;2023-01-13T06:33:36;1.85;;;0.80;;
351;SDS011;164;50.784;6.496;2023-01-13T06:36:05;4.35;;;1.27;;
351;SDS011;164;50.784;6.496;2023-01-13T06:38:36;1.98;;;0.95;;
351;SDS011;164;50.784;6.496;2023-01-13T06:41:05;3.90;;;1.75;;
351;SDS011;164;50.784;6.496;2023-01-13T06:43:34;3.05;;;1.20;;
351;SDS011;164;50.784;6.496;2023-01-13T06:46:00;2.88;;;1.00;;
351;SDS011;164;50.784;6.496;2023-01-13T06:48:28;2.28;;;1.60;;
351;SDS011;164;50.784;6.496;2023-01-13T06:50:57;3.58;;;1.35;;
351;SDS011;164;50.784;6.496;2023-01-13T06:53:24;3.15;;;0.68;;
351;SDS011;164;50.784;6.496;2023-01-13T06:55:53;2.17;;;0.70;;
351;SDS011;164;50.784;6.496;2023-01-13T06:58:20;2.78;;;0.80;;
351;SDS011;164;50.784;6.496;2023-01-13T07:00:47;2.30;;;1.20;;
351;SDS011;164;50.784;6.496;2023-01-13T07:03:16;3.50;;;1.00;;
351;SDS011;164;50.784;6.496;2023-01-13T07:05:49;2.83;;;1.00;;
351;SDS011;164;50.784;6.496;2023-01-13T07:08:17;4.20;;;1.30;;
351;SDS011;164;50.784;6.496;2023-01-13T07:10:44;5.97;;;1.30;;
351;SDS011;164;50.784;6.496;2023-01-13T07:13:13;3.25;;;1.40;;
351;SDS011;164;50.784;6.496;2023-01-13T07:16:00;5.40;;;1.40;;
351;SDS011;164;50.784;6.496;2023-01-13T07:18:30;3.50;;;1.30;;
351;SDS011;164;50.784;6.496;2023-01-13T07:20:59;3.47;;;0.98;;
351;SDS011;164;50.784;6.496;2023-01-13T07:23:26;3.42;;;1.35;;
351;SDS011;164;50.784;6.496;2023-01-13T07:25:54;6.20;;;1.67;;
351;SDS011;164;50.784;6.496;2023-01-13T07:28:23;3.17;;;1.02;;
351;SDS011;164;50.784;6.496;2023-01-13T07:30:50;1.35;;;0.98;;
351;SDS011;164;50.784;6.496;2023-01-13T07:33:19;2.97;;;1.13;;
351;SDS011;164;50.784;6.496;2023-01-13T07:35:47;3.65;;;1.00;;
351;SDS011;164;50.784;6.496;2023-01-13T07:38:14;1.80;;;0.95;;
351;SDS011;164;50.784;6.496;2023-01-13T07:40:41;2.80;;;1.02;;
351;SDS011;164;50.784;6.496;2023-01-13T07:43:09;3.25;;;1.42;;
351;SDS011;164;50.784;6.496;2023-01-13T07:45:56;5.07;;;1.52;;
351;SDS011;164;50.784;6.496;2023-01-13T07:48:24;3.50;;;1.38;;
351;SDS011;164;50.784;6.496;2023-01-13T07:50:51;4.95;;;1.73;;
351;SDS011;164;50.784;6.496;2023-01-13T07:53:18;3.67;;;1.65;;
351;SDS011;164;50.784;6.496;2023-01-13T07:55:45;8.82;;;1.80;;
351;SDS011;164;50.784;6.496;2023-01-13T07:58:13;5.18;;;2.10;;
351;SDS011;164;50.784;6.496;2023-01-13T08:00:40;4.82;;;2.15;;
351;SDS011;164;50.784;6.496;2023-01-13T08:03:09;7.00;;;1.90;;
351;SDS011;164;50.784;6.496;2023-01-13T08:05:36;6.93;;;1.60;;
351;SDS011;164;50.784;6.496;2023-01-13T08:08:04;5.93;;;1.60;;
351;SDS011;164;50.784;6.496;2023-01-13T08:10:32;7.32;;;2.60;;
351;SDS011;164;50.784;6.496;2023-01-13T08:12:59;6.97;;;2.03;;
351;SDS011;164;50.784;6.496;2023-01-13T08:15:45;8.07;;;2.20;;
351;SDS011;164;50.784;6.496;2023-01-13T08:18:15;11.13;;;2.72;;
351;SDS011;164;50.784;6.496;2023-01-13T08:20:44;4.78;;;2.45;;
351;SDS011;164;50.784;6.496;2023-01-13T08:23:12;9.25;;;2.40;;
351;SDS011;164;50.784;6.496;2023-01-13T08:25:39;7.47;;;2.55;;
351;SDS011;164;50.784;6.496;2023-01-13T08:28:07;16.77;;;4.07;;
351;SDS011;164;50.784;6.496;2023-01-13T08:30:34;8.63;;;2.67;;
351;SDS011;164;50.784;6.496;2023-01-13T08:33:04;3.50;;;1.83;;
351;SDS011;164;50.784;6.496;2023-01-13T08:35:34;7.75;;;3.03;;
351;SDS011;164;50.784;6.496;2023-01-13T08:38:01;9.90;;;3.97;;
351;SDS011;164;50.784;6.496;2023-01-13T08:40:29;8.82;;;3.30;;
351;SDS011;164;50.784;6.496;2023-01-13T08:42:57;7.65;;;2.75;;
351;SDS011;164;50.784;6.496;2023-01-13T08:45:24;9.20;;;2.53;;
351;SDS011;164;50.784;6.496;2023-01-13T08:47:52;9.55;;;3.30;;
351;SDS011;164;50.784;6.496;2023-01-13T08:50:19;5.97;;;2.45;;
351;SDS011;164;50.784;6.496;2023-01-13T08:52:48;13.65;;;2.83;;
351;SDS011;164;50.784;6.496;2023-01-13T08:55:15;15.48;;;3.47;;
351;SDS011;164;50.784;6.496;2023-01-13T08:57:43;8.63;;;2.45;;
351;SDS011;164;50.784;6.496;2023-01-13T09:00:11;9.75;;;3.53;;
351;SDS011;164;50.784;6.496;2023-01-13T09:02:38;4.30;;;1.92;;
351;SDS011;164;50.784;6.496;2023-01-13T09:05:06;8.80;;;2.47;;
351;SDS011;164;50.784;6.496;2023-01-13T09:07:33;8.70;;;2.00;;
351;SDS011;164;50.784;6.496;2023-01-13T09:10:02;8.07;;;2.90;;
351;SDS011;164;50.784;6.496;2023-01-13T09:12:30;12.68;;;2.97;;
351;SDS011;164;50.784;6.496;2023-01-13T09:15:15;7.35;;;2.50;;
351;SDS011;164;50.784;6.496;2023-01-13T09:17:42;8.18;;;3.00;;
351;SDS011;164;50.784;6.496;2023-01-13T09:20:10;7.18;;;2.17;;
351;SDS011;164;50.784;6.496;2023-01-13T09:22:37;9.23;;;2.80;;
351;SDS011;164;50.784;6.496;2023-01-13T09:25:07;10.90;;;2.70;;
351;SDS011;164;50.784;6.496;2023-01-13T09:27:36;12.80;;;2.50;;
351;SDS011;164;50.784;6.496;2023-01-13T09:30:04;6.47;;;2.42;;
351;SDS011;164;50.784;6.496;2023-01-13T09:32:31;6.80;;;2.20;;
351;SDS011;164;50.784;6.496;2023-01-13T09:34:59;8.30;;;2.70;;
351;SDS011;164;50.784;6.496;2023-01-13T09:37:25;5.40;;;2.75;;
351;SDS011;164;50.784;6.496;2023-01-13T09:39:53;11.85;;;3.15;;
351;SDS011;164;50.784;6.496;2023-01-13T09:42:22;12.88;;;3.28;;
351;SDS011;164;50.784;6.496;2023-01-13T09:45:08;5.18;;;2.03;;
351;SDS011;164;50.784;6.496;2023-01-13T09:47:37;6.15;;;2.65;;
351;SDS011;164;50.784;6.496;2023-01-13T09:50:08;6.10;;;2.22;;
351;SDS011;164;50.784;6.496;2023-01-13T09:52:47;6.68;;;2.25;;
351;SDS011;164;50.784;6.496;2023-01-13T09:55:14;6.97;;;3.15;;
351;SDS011;164;50.784;6.496;2023-01-13T09:57:44;7.47;;;2.55;;
351;SDS011;164;50.784;6.496;2023-01-13T10:00:12;6.45;;;2.58;;
351;SDS011;164;50.784;6.496;2023-01-13T10:02:45;11.02;;;3.00;;
351;SDS011;164;50.784;6.496;2023-01-13T10:05:21;9.25;;;2.25;;
351;SDS011;164;50.784;6.496;2023-01-13T10:07:53;6.13;;;2.72;;
351;SDS011;164;50.784;6.496;2023-01-13T10:10:23;8.80;;;3.05;;
351;SDS011;164;50.784;6.496;2023-01-13T10:12:54;10.85;;;3.25;;
351;SDS011;164;50.784;6.496;2023-01-13T10:15:39;8.85;;;2.60;;
351;SDS011;164;50.784;6.496;2023-01-13T10:18:10;9.05;;;3.15;;
351;SDS011;164;50.784;6.496;2023-01-13T10:20:44;8.27;;;3.08;;
351;SDS011;164;50.784;6.496;2023-01-13T10:23:27;9.75;;;2.70;;
351;SDS011;164;50.784;6.496;2023-01-13T10:26:00;7.75;;;2.88;;
351;SDS011;164;50.784;6.496;2023-01-13T10:28:32;8.77;;;2.20;;
351;SDS011;164;50.784;6.496;2023-01-13T10:30:59;7.75;;;2.67;;
351;SDS011;164;50.784;6.496;2023-01-13T10:33:26;7.78;;;3.50;;
351;SDS011;164;50.784;6.496;2023-01-13T10:35:55;8.80;;;3.58;;
351;SDS011;164;50.784;6.496;2023-01-13T10:38:24;6.10;;;2.90;;
351;SDS011;164;50.784;6.496;2023-01-13T10:40:52;3.95;;;2.15;;
351;SDS011;164;50.784;6.496;2023-01-13T10:43:20;5.55;;;2.92;;
351;SDS011;164;50.784;6.496;2023-01-13T10:45:54;7.88;;;3.08;;
351;SDS011;164;50.784;6.496;2023-01-13T10:48:22;8.05;;;2.42;;
351;SDS011;164;50.784;6.496;2023-01-13T10:50:57;6.45;;;2.75;;
351;SDS011;164;50.784;6.496;2023-01-13T10:53:25;10.85;;;3.08;;
351;SDS011;164;50.784;6.496;2023-01-13T10:55:59;8.07;;;2.58;;
351;SDS011;164;50.784;6.496;2023-01-13T10:58:27;8.70;;;2.80;;
351;SDS011;164;50.784;6.496;2023-01-13T11:00:59;7.97;;;2.95;;
351;SDS011;164;50.784;6.496;2023-01-13T11:03:33;13.32;;;3.97;;
351;SDS011;164;50.784;6.496;2023-01-13T11:06:01;7.57;;;3.10;;
351;SDS011;164;50.784;6.496;2023-01-13T11:08:29;11.43;;;2.45;;
351;SDS011;164;50.784;6.496;2023-01-13T11:10:57;10.88;;;3.17;;
351;SDS011;164;50.784;6.496;2023-01-13T11:13:28;5.70;;;2.55;;
351;SDS011;164;50.784;6.496;2023-01-13T11:15:58;9.85;;;2.80;;
351;SDS011;164;50.784;6.496;2023-01-13T11:18:29;6.65;;;2.67;;
351;SDS011;164;50.784;6.496;2023-01-13T11:21:01;9.57;;;3.45;;
351;SDS011;164;50.784;6.496;2023-01-13T11:23:31;7.28;;;2.50;;
351;SDS011;164;50.784;6.496;2023-01-13T11:26:01;8.70;;;2.92;;
351;SDS011;164;50.784;6.496;2023-01-13T11:28:34;9.60;;;3.67;;
351;SDS011;164;50.784;6.496;2023-01-13T11:31:04;7.85;;;1.90;;
351;SDS011;164;50.784;6.496;2023-01-13T11:33:37;9.45;;;2.97;;
351;SDS011;164;50.784;6.496;2023-01-13T11:36:08;9.82;;;2.15;;
351;SDS011;164;50.784;6.496;2023-01-13T11:38:39;7.05;;;2.40;;
351;SDS011;164;50.784;6.496;2023-01-13T11:41:12;10.32;;;2.80;;
351;SDS011;164;50.784;6.496;2023-01-13T11:43:43;5.15;;;2.00;;
351;SDS011;164;50.784;6.496;2023-01-13T11:46:13;4.95;;;2.10;;
351;SDS011;164;50.784;6.496;2023-01-13T11:48:41;4.55;;;1.52;;
351;SDS011;164;50.784;6.496;2023-01-13T11:51:13;6.25;;;1.90;;
351;SDS011;164;50.784;6.496;2023-01-13T11:53:56;6.30;;;2.20;;
351;SDS011;164;50.784;6.496;2023-01-13T11:56:31;7.63;;;1.95;;
351;SDS011;164;50.784;6.496;2023-01-13T11:59:07;5.25;;;2.15;;
351;SDS011;164;50.784;6.496;2023-01-13T12:01:47;7.60;;;2.25;;
351;SDS011;164;50.784;6.496;2023-01-13T12:04:22;6.35;;;2.08;;
351;SDS011;164;50.784;6.496;2023-01-13T12:06:51;5.65;;;2.60;;
351;SDS011;164;50.784;6.496;2023-01-13T12:09:32;8.70;;;1.98;;
351;SDS011;164;50.784;6.496;2023-01-13T12:12:04;7.68;;;2.58;;
351;SDS011;164;50.784;6.496;2023-01-13T12:14:56;7.78;;;2.13;;
351;SDS011;164;50.784;6.496;2023-01-13T12:17:29;7.43;;;2.35;;
351;SDS011;164;50.784;6.496;2023-01-13T12:20:01;5.25;;;2.17;;
351;SDS011;164;50.784;6.496;2023-01-13T12:22:38;7.00;;;2.75;;
351;SDS011;164;50.784;6.496;2023-01-13T12:25:11;6.15;;;2.67;;
351;SDS011;164;50.784;6.496;2023-01-13T12:27:42;7.20;;;2.30;;
351;SDS011;164;50.784;6.496;2023-01-13T12:30:15;7.68;;;2.30;;
351;SDS011;164;50.784;6.496;2023-01-13T12:32:44;4.95;;;2.35;;
351;SDS011;164;50.784;6.496;2023-01-13T12:37:59;6.10;;;2.08;;
351;SDS011;164;50.784;6.496;2023-01-13T12:40:32;7.18;;;3.17;;
351;SDS011;164;50.784;6.496;2023-01-13T12:43:04;8.38;;;2.67;;
351;SDS011;164;50.784;6.496;2023-01-13T12:45:51;10.60;;;2.83;;
351;SDS011;164;50.784;6.496;2023-01-13T12:51:18;8.93;;;3.25;;
351;SDS011;164;50.784;6.496;2023-01-13T12:53:48;6.93;;;2.17;;
351;SDS011;164;50.784;6.496;2023-01-13T12:56:19;7.38;;;3.35;;
351;SDS011;164;50.784;6.496;2023-01-13T12:58:47;9.25;;;2.65;;
351;SDS011;164;50.784;6.496;2023-01-13T13:01:15;9.02;;;2.55;;
351;SDS011;164;50.784;6.496;2023-01-13T13:04:05;9.85;;;2.72;;
351;SDS011;164;50.784;6.496;2023-01-13T13:06:33;8.80;;;2.63;;
351;SDS011;164;50.784;6.496;2023-01-13T13:09:05;9.32;;;2.85;;
351;SDS011;164;50.784;6.496;2023-01-13T13:11:35;6.22;;;2.33;;
351;SDS011;164;50.784;6.496;2023-01-13T13:17:22;7.30;;;2.85;;
351;SDS011;164;50.784;6.496;2023-01-13T13:20:50;6.57;;;2.67;;
351;SDS011;164;50.784;6.496;2023-01-13T13:22:54;7.93;;;2.65;;
351;SDS011;164;50.784;6.496;2023-01-13T13:25:24;6.28;;;2.40;;
351;SDS011;164;50.784;6.496;2023-01-13T13:30:43;7.53;;;3.05;;
351;SDS011;164;50.784;6.496;2023-01-13T13:33:14;10.23;;;3.17;;
351;SDS011;164;50.784;6.496;2023-01-13T13:35:54;8.80;;;2.90;;
351;SDS011;164;50.784;6.496;2023-01-13T13:38:31;6.90;;;1.73;;
351;SDS011;164;50.784;6.496;2023-01-13T13:41:25;12.13;;;4.85;;
351;SDS011;164;50.784;6.496;2023-01-13T13:44:11;5.47;;;2.90;;
351;SDS011;164;50.784;6.496;2023-01-13T13:46:59;7.53;;;2.55;;
351;SDS011;164;50.784;6.496;2023-01-13T13:49:37;6.38;;;2.35;;
351;SDS011;164;50.784;6.496;2023-01-13T13:52:06;7.18;;;2.40;;
351;SDS011;164;50.784;6.496;2023-01-13T13:54:35;8.98;;;3.05;;
351;SDS011;164;50.784;6.496;2023-01-13T13:57:05;9.05;;;2.70;;
351;SDS011;164;50.784;6.496;2023-01-13T13:59:39;8.48;;;2.60;;
351;SDS011;164;50.784;6.496;2023-01-13T14:02:10;9.45;;;2.50;;
351;SDS011;164;50.784;6.496;2023-01-13T14:04:40;7.95;;;2.80;;
351;SDS011;164;50.784;6.496;2023-01-13T14:07:14;7.03;;;2.40;;
351;SDS011;164;50.784;6.496;2023-01-13T14:09:43;8.32;;;2.88;;
351;SDS011;164;50.784;6.496;2023-01-13T14:12:16;9.27;;;3.00;;
351;SDS011;164;50.784;6.496;2023-01-13T14:14:45;7.65;;;2.90;;
351;SDS011;164;50.784;6.496;2023-01-13T14:17:17;11.52;;;3.35;;
351;SDS011;164;50.784;6.496;2023-01-13T14:19:47;10.88;;;2.88;;
351;SDS011;164;50.784;6.496;2023-01-13T14:22:16;8.15;;;4.18;;
351;SDS011;164;50.784;6.496;2023-01-13T14:24:44;7.30;;;3.20;;
351;SDS011;164;50.784;6.496;2023-01-13T14:27:20;7.07;;;3.20;;
351;SDS011;164;50.784;6.496;2023-01-13T14:29:50;7.57;;;3.22;;
351;SDS011;164;50.784;6.496;2023-01-13T14:32:19;9.27;;;3.50;;
351;SDS011;164;50.784;6.496;2023-01-13T14:34:47;8.55;;;3.08;;
351;SDS011;164;50.784;6.496;2023-01-13T14:37:20;5.30;;;2.22;;
351;SDS011;164;50.784;6.496;2023-01-13T14:39:48;8.75;;;3.60;;
351;SDS011;164;50.784;6.496;2023-01-13T14:42:17;4.57;;;2.60;;
351;SDS011;164;50.784;6.496;2023-01-13T14:44:46;5.95;;;2.47;;
351;SDS011;164;50.784;6.496;2023-01-13T14:47:18;7.10;;;2.80;;
351;SDS011;164;50.784;6.496;2023-01-13T14:49:54;12.25;;;3.28;;
351;SDS011;164;50.784;6.496;2023-01-13T14:52:25;6.63;;;3.05;;
351;SDS011;164;50.784;6.496;2023-01-13T14:55:08;10.70;;;2.25;;
351;SDS011;164;50.784;6.496;2023-01-13T14:57:37;12.10;;;4.38;;
351;SDS011;164;50.784;6.496;2023-01-13T15:00:18;7.20;;;2.75;;
351;SDS011;164;50.784;6.496;2023-01-13T15:02:47;7.10;;;2.20;;
351;SDS011;164;50.784;6.496;2023-01-13T15:11:00;7.30;;;2.63;;
351;SDS011;164;50.784;6.496;2023-01-13T15:13:30;9.60;;;3.13;;
351;SDS011;164;50.784;6.496;2023-01-13T15:16:02;12.10;;;3.38;;
351;SDS011;164;50.784;6.496;2023-01-13T15:18:30;6.30;;;2.65;;
351;SDS011;164;50.784;6.496;2023-01-13T15:20:58;8.50;;;2.70;;
351;SDS011;164;50.784;6.496;2023-01-13T15:23:25;14.50;;;4.75;;
351;SDS011;164;50.784;6.496;2023-01-13T15:25:52;10.63;;;3.00;;
351;SDS011;164;50.784;6.496;2023-01-13T15:28:21;8.15;;;3.40;;
351;SDS011;164;50.784;6.496;2023-01-13T15:30:49;6.85;;;3.00;;
351;SDS011;164;50.784;6.496;2023-01-13T15:33:18;15.38;;;3.50;;
351;SDS011;164;50.784;6.496;2023-01-13T15:35:47;8.40;;;3.25;;
351;SDS011;164;50.784;6.496;2023-01-13T15:38:16;7.78;;;3.17;;
351;SDS011;164;50.784;6.496;2023-01-13T15:40:44;9.77;;;2.55;;
351;SDS011;164;50.784;6.496;2023-01-13T15:43:12;6.88;;;2.90;;
351;SDS011;164;50.784;6.496;2023-01-13T15:45:58;6.75;;;2.85;;
351;SDS011;164;50.784;6.496;2023-01-13T15:49:00;11.85;;;4.45;;
351;SDS011;164;50.784;6.496;2023-01-13T15:51:32;5.88;;;2.42;;
351;SDS011;164;50.784;6.496;2023-01-13T15:54:00;12.40;;;4.10;;
351;SDS011;164;50.784;6.496;2023-01-13T15:56:27;6.50;;;3.30;;
351;SDS011;164;50.784;6.496;2023-01-13T15:58:55;10.68;;;3.33;;
351;SDS011;164;50.784;6.496;2023-01-13T16:01:22;8.18;;;2.95;;
351;SDS011;164;50.784;6.496;2023-01-13T16:03:49;10.15;;;4.13;;
351;SDS011;164;50.784;6.496;2023-01-13T16:06:19;6.05;;;2.50;;
351;SDS011;164;50.784;6.496;2023-01-13T16:08:46;5.40;;;2.30;;
351;SDS011;164;50.784;6.496;2023-01-13T16:11:14;7.50;;;2.78;;
351;SDS011;164;50.784;6.496;2023-01-13T16:13:42;4.40;;;2.40;;
351;SDS011;164;50.784;6.496;2023-01-13T16:16:14;9.75;;;2.65;;
351;SDS011;164;50.784;6.496;2023-01-13T16:18:41;6.20;;;2.90;;
351;SDS011;164;50.784;6.496;2023-01-13T16:21:09;7.45;;;2.95;;
351;SDS011;164;50.784;6.496;2023-01-13T16:23:39;7.15;;;3.50;;
351;SDS011;164;50.784;6.496;2023-01-13T16:26:09;8.82;;;3.25;;
351;SDS011;164;50.784;6.496;2023-01-13T16:28:40;7.85;;;3.42;;
351;SDS011;164;50.784;6.496;2023-01-13T16:31:14;9.85;;;3.70;;